SAS4172 ENAL-ENVA
Flight info
| Callsign | SAS4172 |
|---|---|
| Flight time | 0h 35m |
| Altitude | 29000 |
| Route | NELSU |
| Aircraft | A320/M-SDE3FGHIRWY/LB1 |
Departure
| Time | 2026-05-06 14:58 |
|---|---|
| Airport | Ålesund Airport (ENAL) |
Arrival
| Time | 2026-05-06 15:34 |
|---|---|
| Airport | Trondheim Airport, Værnes (ENVA) |
| Time | Latitude | Longitude | Altitude | Speed | Heading |
|---|---|---|---|---|---|
| 2026-05-06 14:26 | 62.55932 | 6.11553 | 81 ft | 0 kts | 153° |
| 2026-05-06 14:28 | 62.55932 | 6.11552 | 81 ft | 0 kts | 154° |
| 2026-05-06 14:30 | 62.55933 | 6.11552 | 81 ft | 0 kts | 154° |
| 2026-05-06 14:49 | 62.55934 | 6.11551 | 79 ft | 2 kts | 154° |
| 2026-05-06 14:49 | 62.55956 | 6.11528 | 80 ft | 4 kts | 156° |
| 2026-05-06 14:49 | 62.55969 | 6.11515 | 83 ft | 0 kts | 155° |
| 2026-05-06 14:50 | 62.55970 | 6.11515 | 83 ft | 0 kts | 155° |
| 2026-05-06 14:54 | 62.55968 | 6.11516 | 79 ft | 2 kts | 154° |
| 2026-05-06 14:54 | 62.55972 | 6.11554 | 86 ft | 4 kts | 35° |
| 2026-05-06 14:55 | 62.56027 | 6.11607 | 81 ft | 13 kts | 18° |
| 2026-05-06 14:55 | 62.56090 | 6.11768 | 68 ft | 17 kts | 65° |
| 2026-05-06 14:55 | 62.56138 | 6.11991 | 76 ft | 9 kts | 64° |
| 2026-05-06 14:55 | 62.56169 | 6.12083 | 73 ft | 11 kts | 39° |
| 2026-05-06 14:56 | 62.56249 | 6.12138 | 66 ft | 7 kts | 360° |
| 2026-05-06 14:56 | 62.56293 | 6.12174 | 66 ft | 9 kts | 47° |
| 2026-05-06 14:56 | 62.56332 | 6.12363 | 61 ft | 19 kts | 66° |
| 2026-05-06 14:56 | 62.56398 | 6.12678 | 49 ft | 27 kts | 63° |
| 2026-05-06 14:57 | 62.56455 | 6.12912 | 46 ft | 10 kts | 55° |
| 2026-05-06 14:57 | 62.56477 | 6.13020 | 47 ft | 7 kts | 119° |
| 2026-05-06 14:57 | 62.56449 | 6.12976 | 47 ft | 8 kts | 272° |
| 2026-05-06 14:57 | 62.56441 | 6.12847 | 47 ft | 9 kts | 248° |
| 2026-05-06 14:58 | 62.56411 | 6.12707 | 48 ft | 18 kts | 245° |
| 2026-05-06 14:58 | 62.56237 | 6.11913 | 69 ft | 99 kts | 245° |
| 2026-05-06 14:58 | 62.55850 | 6.10155 | 307 ft | 143 kts | 244° |
| 2026-05-06 14:58 | 62.55417 | 6.08226 | 1222 ft | 142 kts | 244° |
| 2026-05-06 14:59 | 62.54953 | 6.06202 | 1684 ft | 165 kts | 243° |
| 2026-05-06 14:59 | 62.54587 | 6.04624 | 1739 ft | 190 kts | 243° |
| 2026-05-06 14:59 | 62.53685 | 6.00740 | 2004 ft | 238 kts | 243° |
| 2026-05-06 14:59 | 62.53178 | 5.98581 | 2664 ft | 240 kts | 242° |
| 2026-05-06 15:00 | 62.52126 | 5.94203 | 3820 ft | 251 kts | 241° |
| 2026-05-06 15:00 | 62.51414 | 5.90797 | 5030 ft | 244 kts | 251° |
| 2026-05-06 15:00 | 62.51197 | 5.87145 | 6096 ft | 249 kts | 270° |
| 2026-05-06 15:00 | 62.51630 | 5.83467 | 6989 ft | 260 kts | 294° |
| 2026-05-06 15:01 | 62.52358 | 5.81301 | 7572 ft | 269 kts | 311° |
| 2026-05-06 15:01 | 62.53955 | 5.79060 | 8470 ft | 279 kts | 331° |
| 2026-05-06 15:01 | 62.55797 | 5.77624 | 9361 ft | 288 kts | 348° |
| 2026-05-06 15:01 | 62.57822 | 5.77840 | 10187 ft | 298 kts | 13° |
| 2026-05-06 15:02 | 62.59730 | 5.79966 | 10517 ft | 324 kts | 41° |
| 2026-05-06 15:02 | 62.61053 | 5.84050 | 10911 ft | 339 kts | 67° |
| 2026-05-06 15:02 | 62.61996 | 5.88781 | 11622 ft | 344 kts | 67° |
| 2026-05-06 15:02 | 62.62957 | 5.93576 | 12370 ft | 347 kts | 67° |
| 2026-05-06 15:03 | 62.63931 | 5.98393 | 13199 ft | 349 kts | 66° |
| 2026-05-06 15:03 | 62.64875 | 6.03274 | 13943 ft | 352 kts | 72° |
| 2026-05-06 15:03 | 62.65495 | 6.08436 | 14612 ft | 354 kts | 79° |
| 2026-05-06 15:03 | 62.66011 | 6.13695 | 15285 ft | 357 kts | 79° |
| 2026-05-06 15:04 | 62.66526 | 6.19004 | 15948 ft | 360 kts | 79° |
| 2026-05-06 15:04 | 62.67041 | 6.24368 | 16608 ft | 364 kts | 79° |
| 2026-05-06 15:04 | 62.67549 | 6.29700 | 17266 ft | 367 kts | 79° |
| 2026-05-06 15:04 | 62.68069 | 6.35168 | 17935 ft | 370 kts | 79° |
| 2026-05-06 15:05 | 62.68594 | 6.40674 | 18558 ft | 374 kts | 79° |
| 2026-05-06 15:05 | 62.69121 | 6.46241 | 19120 ft | 378 kts | 79° |
| 2026-05-06 15:05 | 62.69651 | 6.51862 | 19702 ft | 381 kts | 79° |
| 2026-05-06 15:05 | 62.70184 | 6.57548 | 20288 ft | 385 kts | 79° |
| 2026-05-06 15:06 | 62.70719 | 6.63290 | 20858 ft | 389 kts | 79° |
| 2026-05-06 15:06 | 62.71257 | 6.69091 | 21408 ft | 392 kts | 79° |
| 2026-05-06 15:06 | 62.71798 | 6.74940 | 21958 ft | 396 kts | 79° |
| 2026-05-06 15:06 | 62.72342 | 6.80853 | 22520 ft | 400 kts | 79° |
| 2026-05-06 15:07 | 62.72888 | 6.86815 | 23065 ft | 403 kts | 79° |
| 2026-05-06 15:07 | 62.73438 | 6.92842 | 23595 ft | 407 kts | 79° |
| 2026-05-06 15:07 | 62.73988 | 6.98922 | 23995 ft | 410 kts | 79° |
| 2026-05-06 15:07 | 62.74543 | 7.05053 | 24406 ft | 414 kts | 79° |
| 2026-05-06 15:08 | 62.75102 | 7.11253 | 24810 ft | 419 kts | 79° |
| 2026-05-06 15:08 | 62.75660 | 7.17518 | 25216 ft | 423 kts | 79° |
| 2026-05-06 15:08 | 62.76223 | 7.23848 | 25614 ft | 427 kts | 79° |
| 2026-05-06 15:08 | 62.76790 | 7.30243 | 25999 ft | 431 kts | 79° |
| 2026-05-06 15:09 | 62.77361 | 7.36691 | 26389 ft | 435 kts | 79° |
| 2026-05-06 15:09 | 62.77933 | 7.43197 | 26768 ft | 439 kts | 79° |
| 2026-05-06 15:09 | 62.78503 | 7.49767 | 27120 ft | 442 kts | 79° |
| 2026-05-06 15:09 | 62.79074 | 7.56409 | 27480 ft | 446 kts | 79° |
| 2026-05-06 15:10 | 62.79650 | 7.63096 | 27837 ft | 450 kts | 79° |
| 2026-05-06 15:10 | 62.80228 | 7.69852 | 28186 ft | 454 kts | 80° |
| 2026-05-06 15:10 | 62.80805 | 7.76660 | 28513 ft | 458 kts | 80° |
| 2026-05-06 15:10 | 62.81381 | 7.83536 | 28854 ft | 461 kts | 80° |
| 2026-05-06 15:11 | 62.82005 | 7.90413 | 28957 ft | 456 kts | 75° |
| 2026-05-06 15:11 | 62.83001 | 7.96883 | 28727 ft | 444 kts | 65° |
| 2026-05-06 15:11 | 62.84453 | 8.02750 | 28457 ft | 433 kts | 54° |
| 2026-05-06 15:11 | 62.86228 | 8.07873 | 28179 ft | 424 kts | 50° |
| 2026-05-06 15:12 | 62.88043 | 8.12895 | 27899 ft | 417 kts | 50° |
| 2026-05-06 15:12 | 62.89836 | 8.17830 | 27652 ft | 411 kts | 50° |
| 2026-05-06 15:12 | 62.91608 | 8.22708 | 27375 ft | 406 kts | 50° |
| 2026-05-06 15:12 | 62.93353 | 8.27524 | 27134 ft | 400 kts | 50° |
| 2026-05-06 15:13 | 62.95076 | 8.32297 | 26772 ft | 397 kts | 50° |
| 2026-05-06 15:13 | 62.96783 | 8.37035 | 26390 ft | 394 kts | 50° |
| 2026-05-06 15:13 | 62.98479 | 8.41759 | 26002 ft | 392 kts | 50° |
| 2026-05-06 15:13 | 63.00158 | 8.46456 | 25609 ft | 390 kts | 50° |
| 2026-05-06 15:14 | 63.01827 | 8.51145 | 25211 ft | 388 kts | 50° |
| 2026-05-06 15:14 | 63.03487 | 8.55818 | 24811 ft | 386 kts | 51° |
| 2026-05-06 15:14 | 63.05137 | 8.60465 | 24408 ft | 385 kts | 51° |
| 2026-05-06 15:14 | 63.06784 | 8.65111 | 23997 ft | 383 kts | 51° |
| 2026-05-06 15:15 | 63.08421 | 8.69735 | 23577 ft | 382 kts | 51° |
| 2026-05-06 15:15 | 63.10046 | 8.74361 | 23112 ft | 380 kts | 53° |
| 2026-05-06 15:15 | 63.11378 | 8.79357 | 22688 ft | 377 kts | 65° |
| 2026-05-06 15:15 | 63.12218 | 8.84789 | 22279 ft | 372 kts | 78° |
| 2026-05-06 15:16 | 63.12558 | 8.90408 | 21867 ft | 367 kts | 89° |
| 2026-05-06 15:16 | 63.12488 | 8.96008 | 21457 ft | 363 kts | 94° |
| 2026-05-06 15:16 | 63.12368 | 9.01558 | 21050 ft | 359 kts | 94° |
| 2026-05-06 15:16 | 63.12247 | 9.07041 | 20648 ft | 356 kts | 94° |
| 2026-05-06 15:17 | 63.12129 | 9.12472 | 20244 ft | 352 kts | 94° |
| 2026-05-06 15:17 | 63.12011 | 9.17846 | 19845 ft | 349 kts | 94° |
| 2026-05-06 15:17 | 63.11889 | 9.23186 | 19452 ft | 346 kts | 94° |
| 2026-05-06 15:17 | 63.11763 | 9.28471 | 19059 ft | 343 kts | 94° |
| 2026-05-06 15:18 | 63.11636 | 9.33699 | 18671 ft | 338 kts | 94° |
| 2026-05-06 15:18 | 63.11511 | 9.38834 | 18291 ft | 332 kts | 94° |
| 2026-05-06 15:18 | 63.11387 | 9.43874 | 17887 ft | 326 kts | 94° |
| 2026-05-06 15:18 | 63.11262 | 9.48826 | 17507 ft | 319 kts | 94° |
| 2026-05-06 15:19 | 63.11137 | 9.53676 | 17141 ft | 314 kts | 94° |
| 2026-05-06 15:19 | 63.11014 | 9.58437 | 16789 ft | 308 kts | 95° |
| 2026-05-06 15:19 | 63.10960 | 9.63130 | 16451 ft | 305 kts | 88° |
| 2026-05-06 15:19 | 63.11238 | 9.67769 | 16098 ft | 305 kts | 82° |
| 2026-05-06 15:20 | 63.11584 | 9.72379 | 15752 ft | 304 kts | 82° |
| 2026-05-06 15:20 | 63.11922 | 9.76983 | 15402 ft | 303 kts | 82° |
| 2026-05-06 15:20 | 63.12253 | 9.81564 | 15066 ft | 302 kts | 82° |
| 2026-05-06 15:20 | 63.12580 | 9.86134 | 14715 ft | 301 kts | 82° |
| 2026-05-06 15:21 | 63.12863 | 9.90086 | 14432 ft | 300 kts | 82° |
| 2026-05-06 15:21 | 63.13191 | 9.94662 | 14093 ft | 305 kts | 82° |
| 2026-05-06 15:21 | 63.13523 | 9.99309 | 13739 ft | 307 kts | 82° |
| 2026-05-06 15:21 | 63.13851 | 10.03967 | 13369 ft | 306 kts | 82° |
| 2026-05-06 15:22 | 63.14178 | 10.08625 | 13017 ft | 306 kts | 82° |
| 2026-05-06 15:22 | 63.14504 | 10.13255 | 12663 ft | 304 kts | 82° |
| 2026-05-06 15:22 | 63.14829 | 10.17865 | 12314 ft | 303 kts | 82° |
| 2026-05-06 15:22 | 63.15150 | 10.22461 | 11967 ft | 303 kts | 82° |
| 2026-05-06 15:23 | 63.15474 | 10.27119 | 11606 ft | 308 kts | 82° |
| 2026-05-06 15:23 | 63.15796 | 10.31793 | 11246 ft | 307 kts | 82° |
| 2026-05-06 15:23 | 63.16117 | 10.36460 | 10897 ft | 306 kts | 82° |
| 2026-05-06 15:23 | 63.16396 | 10.40545 | 10624 ft | 304 kts | 82° |
| 2026-05-06 15:24 | 63.16706 | 10.45110 | 10397 ft | 296 kts | 82° |
| 2026-05-06 15:24 | 63.17005 | 10.49591 | 10036 ft | 293 kts | 82° |
| 2026-05-06 15:24 | 63.17299 | 10.54038 | 9651 ft | 291 kts | 82° |
| 2026-05-06 15:24 | 63.17593 | 10.58460 | 9272 ft | 290 kts | 82° |
| 2026-05-06 15:25 | 63.17946 | 10.62843 | 8881 ft | 288 kts | 74° |
| 2026-05-06 15:25 | 63.18695 | 10.66922 | 8492 ft | 285 kts | 60° |
| 2026-05-06 15:25 | 63.19822 | 10.70470 | 8120 ft | 281 kts | 49° |
| 2026-05-06 15:25 | 63.21059 | 10.73812 | 7772 ft | 280 kts | 50° |
| 2026-05-06 15:26 | 63.22287 | 10.77149 | 7422 ft | 278 kts | 50° |
| 2026-05-06 15:26 | 63.23506 | 10.80465 | 7076 ft | 277 kts | 50° |
| 2026-05-06 15:26 | 63.24684 | 10.83681 | 6752 ft | 266 kts | 50° |
| 2026-05-06 15:26 | 63.25827 | 10.86814 | 6421 ft | 256 kts | 50° |
| 2026-05-06 15:27 | 63.26928 | 10.89834 | 6076 ft | 248 kts | 49° |
| 2026-05-06 15:27 | 63.28009 | 10.92798 | 5754 ft | 246 kts | 49° |
| 2026-05-06 15:27 | 63.29085 | 10.95748 | 5490 ft | 245 kts | 49° |
| 2026-05-06 15:27 | 63.30153 | 10.98689 | 5220 ft | 244 kts | 49° |
| 2026-05-06 15:28 | 63.31216 | 11.01615 | 4950 ft | 243 kts | 49° |
| 2026-05-06 15:28 | 63.32277 | 11.04543 | 4714 ft | 244 kts | 49° |
| 2026-05-06 15:28 | 63.33346 | 11.07495 | 4494 ft | 245 kts | 49° |
| 2026-05-06 15:28 | 63.34337 | 11.10559 | 4281 ft | 240 kts | 54° |
| 2026-05-06 15:29 | 63.35233 | 11.13574 | 4057 ft | 229 kts | 54° |
| 2026-05-06 15:29 | 63.36116 | 11.16511 | 3851 ft | 228 kts | 51° |
| 2026-05-06 15:29 | 63.37212 | 11.18991 | 3643 ft | 224 kts | 33° |
| 2026-05-06 15:29 | 63.38568 | 11.20625 | 3429 ft | 220 kts | 15° |
| 2026-05-06 15:30 | 63.40027 | 11.21323 | 3221 ft | 208 kts | 359° |
| 2026-05-06 15:30 | 63.41418 | 11.21139 | 2993 ft | 194 kts | 345° |
| 2026-05-06 15:30 | 63.42677 | 11.20224 | 2668 ft | 185 kts | 330° |
| 2026-05-06 15:30 | 63.43742 | 11.18738 | 2459 ft | 176 kts | 319° |
| 2026-05-06 15:31 | 63.44567 | 11.16879 | 2245 ft | 162 kts | 306° |
| 2026-05-06 15:31 | 63.45146 | 11.14851 | 2077 ft | 148 kts | 294° |
| 2026-05-06 15:31 | 63.45509 | 11.12808 | 1896 ft | 137 kts | 283° |
| 2026-05-06 15:32 | 63.45723 | 11.08712 | 1511 ft | 132 kts | 269° |
| 2026-05-06 15:32 | 63.45726 | 11.06652 | 1312 ft | 133 kts | 270° |
| 2026-05-06 15:32 | 63.45731 | 11.04593 | 1129 ft | 132 kts | 270° |
| 2026-05-06 15:32 | 63.45752 | 11.02540 | 927 ft | 132 kts | 271° |
| 2026-05-06 15:33 | 63.45767 | 11.00492 | 707 ft | 131 kts | 272° |
| 2026-05-06 15:33 | 63.45746 | 10.98452 | 574 ft | 131 kts | 270° |
| 2026-05-06 15:33 | 63.45743 | 10.96406 | 286 ft | 132 kts | 274° |
| 2026-05-06 15:33 | 63.45756 | 10.94350 | 96 ft | 133 kts | 272° |
| 2026-05-06 15:34 | 63.45763 | 10.92474 | 42 ft | 89 kts | 270° |
| 2026-05-06 15:34 | 63.45768 | 10.91530 | 37 ft | 51 kts | 271° |
| 2026-05-06 15:34 | 63.45767 | 10.90898 | 34 ft | 32 kts | 264° |
| 2026-05-06 15:34 | 63.45744 | 10.90605 | 33 ft | 17 kts | 256° |
| 2026-05-06 15:35 | 63.45693 | 10.90420 | 33 ft | 7 kts | 220° |
| 2026-05-06 15:35 | 63.45654 | 10.90374 | 33 ft | 8 kts | 195° |
| 2026-05-06 15:35 | 63.45604 | 10.90433 | 33 ft | 10 kts | 114° |
| 2026-05-06 15:35 | 63.45597 | 10.90600 | 34 ft | 12 kts | 92° |
| 2026-05-06 15:36 | 63.45598 | 10.90797 | 35 ft | 14 kts | 89° |
| 2026-05-06 15:36 | 63.45598 | 10.91031 | 35 ft | 17 kts | 90° |
| 2026-05-06 15:36 | 63.45595 | 10.91310 | 37 ft | 19 kts | 90° |
| 2026-05-06 15:36 | 63.45595 | 10.91574 | 39 ft | 6 kts | 90° |
| 2026-05-06 15:37 | 63.45583 | 10.91652 | 39 ft | 6 kts | 146° |
| 2026-05-06 15:37 | 63.45534 | 10.91664 | 39 ft | 9 kts | 182° |
| 2026-05-06 15:37 | 63.45504 | 10.91663 | 39 ft | 5 kts | 180° |
| 2026-05-06 15:37 | 63.45497 | 10.91663 | 39 ft | 0 kts | 180° |
| 2026-05-06 15:41 | 63.45498 | 10.91663 | 39 ft | 0 kts | 180° |